Phuket, Thailand

1:52 PM ICT on February 13, 2016 (GMT +0700)
Phuket International | | Change Station
CLOSE
Current Station
Airport
Location: Phuket,
Elevation: 30 ft
Nearby Weather Stations

Elev 30 ft 8.11 °N, 98.32 °E | Updated 22 minutes ago

Partly Cloudy
Partly Cloudy
91 °F
Feels Like 95 °F
N
13
Wind Variable Wind from ESE

Today
High -- | Low -- °F
--% Chance of Precip.
Yesterday
High -- | Low -- °F
Precip. -- in
Pressure 29.83 in
Visibility 6.2 miles
Clouds Few 3000 ft
Heat Index 95 °F
Dew Point 68 °F
Humidity 46%
Rainfall 0.00 in
Snow Depth Not available.
6:45 AM 6:36 PM
Waxing Crescent, 28% visible
METAR VTSP 130630Z 11011KT 9999 FEW030 33/20 Q1010 A2982 NOSIG
Pressure 29.83 in
Visibility 6.2 miles
Clouds Few 3000 ft
Heat Index 95 °F
Dew Point 68 °F
Humidity 46%
Rainfall 0.00 in
Snow Depth Not available.
6:45 AM 6:36 PM
Waxing Crescent, 28% visible
METAR VTSP 130630Z 11011KT 9999 FEW030 33/20 Q1010 A2982 NOSIG

10-Day Weather Forecast

No radar image for this location.
×

Almanac

Astronomy

Feb. 13, 2016 Rise Set
Actual Time
Civil Twilight
Nautical Twilight
Astronomical Twilight
Moon
Length of Visible Light
Length of Day
Tomorrow will be .
, % of the Moon is Illuminated

Today's Extremes

Country Highs Country Lows

Community

WunderPhotos

Upload Photos

1,892,519 photos uploaded!

WunderBlog® & News

Nearby

Air Quality

  Air Quality AQ Index Pollutant
Not available.

Snow Depth

Station Depth Elevation

Earthquake Activity

City Distance Mag. Time & Date
Minimum magnitude displayed is 2.5.

Coastal Water Temperatures

Place Temperature

Stations

Nearby Weather Stations

Station Location Temp. Windchill Dew Point Humidity Wind Precip. Elev Updated Type